sensor_id;sensor_type;location;lat;lon;timestamp;P1;durP1;ratioP1;P2;durP2;ratioP2
80307;SDS011;69616;43.522;1.348;2023-05-08T00:00:46;14.02;;;2.42;;
80307;SDS011;69616;43.522;1.348;2023-05-08T00:03:12;17.57;;;2.43;;
80307;SDS011;69616;43.522;1.348;2023-05-08T00:05:39;17.60;;;3.83;;
80307;SDS011;69616;43.522;1.348;2023-05-08T00:08:06;17.17;;;2.67;;
80307;SDS011;69616;43.522;1.348;2023-05-08T00:10:31;12.70;;;1.90;;
80307;SDS011;69616;43.522;1.348;2023-05-08T00:12:57;12.40;;;1.88;;
80307;SDS011;69616;43.522;1.348;2023-05-08T00:15:23;13.90;;;2.60;;
80307;SDS011;69616;43.522;1.348;2023-05-08T00:17:48;15.67;;;2.27;;
80307;SDS011;69616;43.522;1.348;2023-05-08T00:20:13;13.93;;;2.25;;
80307;SDS011;69616;43.522;1.348;2023-05-08T00:22:39;16.00;;;2.63;;
80307;SDS011;69616;43.522;1.348;2023-05-08T00:25:04;13.10;;;1.97;;
80307;SDS011;69616;43.522;1.348;2023-05-08T00:27:30;13.27;;;2.33;;
80307;SDS011;69616;43.522;1.348;2023-05-08T00:29:56;16.03;;;2.37;;
80307;SDS011;69616;43.522;1.348;2023-05-08T00:32:22;14.13;;;2.00;;
80307;SDS011;69616;43.522;1.348;2023-05-08T00:34:48;14.32;;;3.17;;
80307;SDS011;69616;43.522;1.348;2023-05-08T00:37:13;16.43;;;2.17;;
80307;SDS011;69616;43.522;1.348;2023-05-08T00:39:38;19.83;;;2.77;;
80307;SDS011;69616;43.522;1.348;2023-05-08T00:42:04;19.67;;;2.60;;
80307;SDS011;69616;43.522;1.348;2023-05-08T00:44:29;15.02;;;2.40;;
80307;SDS011;69616;43.522;1.348;2023-05-08T00:46:55;12.10;;;1.87;;
80307;SDS011;69616;43.522;1.348;2023-05-08T00:49:20;14.67;;;2.40;;
80307;SDS011;69616;43.522;1.348;2023-05-08T00:51:46;18.60;;;2.17;;
80307;SDS011;69616;43.522;1.348;2023-05-08T00:54:14;20.53;;;2.87;;
80307;SDS011;69616;43.522;1.348;2023-05-08T00:56:40;16.48;;;2.58;;
80307;SDS011;69616;43.522;1.348;2023-05-08T00:59:07;21.25;;;3.83;;
80307;SDS011;69616;43.522;1.348;2023-05-08T01:01:35;15.27;;;2.33;;
80307;SDS011;69616;43.522;1.348;2023-05-08T01:04:05;15.32;;;2.40;;
80307;SDS011;69616;43.522;1.348;2023-05-08T01:06:31;18.90;;;2.30;;
80307;SDS011;69616;43.522;1.348;2023-05-08T01:08:58;21.98;;;2.85;;
80307;SDS011;69616;43.522;1.348;2023-05-08T01:17:16;14.98;;;2.65;;
80307;SDS011;69616;43.522;1.348;2023-05-08T01:20:08;18.95;;;2.33;;
80307;SDS011;69616;43.522;1.348;2023-05-08T01:34:20;17.27;;;2.22;;
80307;SDS011;69616;43.522;1.348;2023-05-08T01:45:00;15.57;;;2.55;;
80307;SDS011;69616;43.522;1.348;2023-05-08T01:47:32;12.10;;;1.90;;
80307;SDS011;69616;43.522;1.348;2023-05-08T01:50:12;14.90;;;2.10;;
80307;SDS011;69616;43.522;1.348;2023-05-08T01:52:43;16.00;;;2.42;;
80307;SDS011;69616;43.522;1.348;2023-05-08T01:55:15;15.67;;;2.60;;
80307;SDS011;69616;43.522;1.348;2023-05-08T01:57:48;15.77;;;2.13;;
80307;SDS011;69616;43.522;1.348;2023-05-08T02:00:18;11.15;;;2.40;;
80307;SDS011;69616;43.522;1.348;2023-05-08T02:02:46;19.70;;;2.13;;
80307;SDS011;69616;43.522;1.348;2023-05-08T02:05:13;20.02;;;2.70;;
80307;SDS011;69616;43.522;1.348;2023-05-08T02:07:40;18.63;;;2.60;;
80307;SDS011;69616;43.522;1.348;2023-05-08T02:10:08;14.23;;;2.53;;
80307;SDS011;69616;43.522;1.348;2023-05-08T02:12:35;20.38;;;2.80;;
80307;SDS011;69616;43.522;1.348;2023-05-08T02:15:03;18.35;;;2.35;;
80307;SDS011;69616;43.522;1.348;2023-05-08T02:17:31;20.02;;;2.92;;
80307;SDS011;69616;43.522;1.348;2023-05-08T02:20:00;16.90;;;2.20;;
80307;SDS011;69616;43.522;1.348;2023-05-08T02:22:27;13.43;;;1.95;;
80307;SDS011;69616;43.522;1.348;2023-05-08T02:24:55;14.65;;;2.13;;
80307;SDS011;69616;43.522;1.348;2023-05-08T02:27:22;18.08;;;2.88;;
80307;SDS011;69616;43.522;1.348;2023-05-08T02:29:50;16.00;;;2.70;;
80307;SDS011;69616;43.522;1.348;2023-05-08T02:32:18;13.60;;;2.10;;
80307;SDS011;69616;43.522;1.348;2023-05-08T02:34:44;13.93;;;2.35;;
80307;SDS011;69616;43.522;1.348;2023-05-08T02:37:13;15.48;;;2.65;;
80307;SDS011;69616;43.522;1.348;2023-05-08T02:39:40;15.18;;;2.67;;
80307;SDS011;69616;43.522;1.348;2023-05-08T02:42:07;14.80;;;2.22;;
80307;SDS011;69616;43.522;1.348;2023-05-08T02:44:33;15.30;;;2.27;;
80307;SDS011;69616;43.522;1.348;2023-05-08T02:47:01;20.10;;;2.72;;
80307;SDS011;69616;43.522;1.348;2023-05-08T02:52:11;14.93;;;1.90;;
80307;SDS011;69616;43.522;1.348;2023-05-08T02:54:42;14.40;;;2.30;;
80307;SDS011;69616;43.522;1.348;2023-05-08T03:02:39;14.90;;;2.20;;
80307;SDS011;69616;43.522;1.348;2023-05-08T03:05:12;15.43;;;2.55;;
80307;SDS011;69616;43.522;1.348;2023-05-08T03:07:41;17.77;;;2.22;;
80307;SDS011;69616;43.522;1.348;2023-05-08T03:10:12;15.00;;;2.10;;
80307;SDS011;69616;43.522;1.348;2023-05-08T03:12:42;14.52;;;2.25;;
80307;SDS011;69616;43.522;1.348;2023-05-08T03:15:15;13.30;;;1.90;;
80307;SDS011;69616;43.522;1.348;2023-05-08T03:17:45;27.08;;;3.28;;
80307;SDS011;69616;43.522;1.348;2023-05-08T03:20:14;15.93;;;2.60;;
80307;SDS011;69616;43.522;1.348;2023-05-08T03:22:42;13.98;;;2.05;;
80307;SDS011;69616;43.522;1.348;2023-05-08T03:25:10;18.65;;;2.30;;
80307;SDS011;69616;43.522;1.348;2023-05-08T03:27:38;16.73;;;2.40;;
80307;SDS011;69616;43.522;1.348;2023-05-08T03:30:05;19.67;;;2.30;;
80307;SDS011;69616;43.522;1.348;2023-05-08T03:32:31;13.10;;;2.10;;
80307;SDS011;69616;43.522;1.348;2023-05-08T03:34:59;16.83;;;2.20;;
80307;SDS011;69616;43.522;1.348;2023-05-08T03:37:26;16.92;;;2.55;;
80307;SDS011;69616;43.522;1.348;2023-05-08T03:39:52;15.63;;;2.43;;
80307;SDS011;69616;43.522;1.348;2023-05-08T03:42:19;14.40;;;2.08;;
80307;SDS011;69616;43.522;1.348;2023-05-08T03:44:52;19.45;;;2.63;;
80307;SDS011;69616;43.522;1.348;2023-05-08T03:47:18;10.25;;;2.58;;
80307;SDS011;69616;43.522;1.348;2023-05-08T03:49:45;17.17;;;3.15;;
80307;SDS011;69616;43.522;1.348;2023-05-08T03:52:12;15.33;;;2.43;;
80307;SDS011;69616;43.522;1.348;2023-05-08T03:54:38;19.50;;;2.75;;
80307;SDS011;69616;43.522;1.348;2023-05-08T03:57:04;14.77;;;2.20;;
80307;SDS011;69616;43.522;1.348;2023-05-08T04:00:13;15.52;;;2.42;;
80307;SDS011;69616;43.522;1.348;2023-05-08T04:02:27;14.70;;;1.97;;
80307;SDS011;69616;43.522;1.348;2023-05-08T04:04:59;15.75;;;2.67;;
80307;SDS011;69616;43.522;1.348;2023-05-08T04:07:44;16.17;;;2.60;;
80307;SDS011;69616;43.522;1.348;2023-05-08T04:10:20;16.45;;;2.10;;
80307;SDS011;69616;43.522;1.348;2023-05-08T04:12:56;18.17;;;2.35;;
80307;SDS011;69616;43.522;1.348;2023-05-08T04:15:27;22.40;;;2.50;;
80307;SDS011;69616;43.522;1.348;2023-05-08T04:17:58;14.65;;;2.28;;
80307;SDS011;69616;43.522;1.348;2023-05-08T04:20:28;17.75;;;2.42;;
80307;SDS011;69616;43.522;1.348;2023-05-08T04:22:56;18.75;;;2.55;;
80307;SDS011;69616;43.522;1.348;2023-05-08T04:25:23;17.65;;;3.25;;
80307;SDS011;69616;43.522;1.348;2023-05-08T04:27:50;16.17;;;2.40;;
80307;SDS011;69616;43.522;1.348;2023-05-08T04:30:17;21.17;;;3.60;;
80307;SDS011;69616;43.522;1.348;2023-05-08T04:32:42;15.40;;;2.72;;
80307;SDS011;69616;43.522;1.348;2023-05-08T04:35:08;21.27;;;2.70;;
80307;SDS011;69616;43.522;1.348;2023-05-08T04:37:34;15.70;;;2.35;;
80307;SDS011;69616;43.522;1.348;2023-05-08T04:39:59;16.70;;;2.50;;
80307;SDS011;69616;43.522;1.348;2023-05-08T04:42:26;18.02;;;2.58;;
80307;SDS011;69616;43.522;1.348;2023-05-08T04:44:52;22.42;;;3.10;;
80307;SDS011;69616;43.522;1.348;2023-05-08T04:47:18;20.07;;;3.50;;
80307;SDS011;69616;43.522;1.348;2023-05-08T04:49:43;19.63;;;3.17;;
80307;SDS011;69616;43.522;1.348;2023-05-08T04:52:09;20.27;;;3.38;;
80307;SDS011;69616;43.522;1.348;2023-05-08T04:54:35;18.77;;;3.33;;
80307;SDS011;69616;43.522;1.348;2023-05-08T04:57:01;20.13;;;2.70;;
80307;SDS011;69616;43.522;1.348;2023-05-08T04:59:26;20.38;;;2.55;;
80307;SDS011;69616;43.522;1.348;2023-05-08T05:01:53;14.18;;;2.20;;
80307;SDS011;69616;43.522;1.348;2023-05-08T05:04:20;16.53;;;2.63;;
80307;SDS011;69616;43.522;1.348;2023-05-08T05:06:45;11.95;;;2.13;;
80307;SDS011;69616;43.522;1.348;2023-05-08T05:09:11;21.33;;;2.10;;
80307;SDS011;69616;43.522;1.348;2023-05-08T05:11:36;14.80;;;2.30;;
80307;SDS011;69616;43.522;1.348;2023-05-08T05:14:01;10.33;;;2.10;;
80307;SDS011;69616;43.522;1.348;2023-05-08T05:16:27;13.63;;;2.03;;
80307;SDS011;69616;43.522;1.348;2023-05-08T05:18:52;12.47;;;2.03;;
80307;SDS011;69616;43.522;1.348;2023-05-08T05:21:18;12.90;;;2.00;;
80307;SDS011;69616;43.522;1.348;2023-05-08T05:23:44;11.95;;;1.98;;
80307;SDS011;69616;43.522;1.348;2023-05-08T05:26:09;8.87;;;1.87;;
80307;SDS011;69616;43.522;1.348;2023-05-08T05:28:35;10.68;;;2.15;;
80307;SDS011;69616;43.522;1.348;2023-05-08T05:31:01;11.57;;;1.60;;
80307;SDS011;69616;43.522;1.348;2023-05-08T05:33:26;13.93;;;2.00;;
80307;SDS011;69616;43.522;1.348;2023-05-08T05:35:52;14.33;;;1.80;;
80307;SDS011;69616;43.522;1.348;2023-05-08T05:38:17;9.70;;;1.63;;
80307;SDS011;69616;43.522;1.348;2023-05-08T05:40:42;11.90;;;2.00;;
80307;SDS011;69616;43.522;1.348;2023-05-08T05:43:08;14.63;;;2.42;;
80307;SDS011;69616;43.522;1.348;2023-05-08T05:45:33;13.93;;;1.60;;
80307;SDS011;69616;43.522;1.348;2023-05-08T05:48:00;10.52;;;1.55;;
80307;SDS011;69616;43.522;1.348;2023-05-08T05:50:26;10.27;;;1.17;;
80307;SDS011;69616;43.522;1.348;2023-05-08T05:52:52;9.85;;;1.35;;
80307;SDS011;69616;43.522;1.348;2023-05-08T05:55:18;9.57;;;1.52;;
80307;SDS011;69616;43.522;1.348;2023-05-08T05:57:43;9.23;;;1.50;;
80307;SDS011;69616;43.522;1.348;2023-05-08T06:00:09;10.43;;;1.50;;
80307;SDS011;69616;43.522;1.348;2023-05-08T06:02:35;12.23;;;1.98;;
80307;SDS011;69616;43.522;1.348;2023-05-08T06:05:01;11.07;;;1.63;;
80307;SDS011;69616;43.522;1.348;2023-05-08T06:07:26;9.20;;;1.27;;
80307;SDS011;69616;43.522;1.348;2023-05-08T06:09:52;12.97;;;1.93;;
80307;SDS011;69616;43.522;1.348;2023-05-08T06:12:18;10.20;;;1.33;;
80307;SDS011;69616;43.522;1.348;2023-05-08T06:14:44;14.25;;;1.90;;
80307;SDS011;69616;43.522;1.348;2023-05-08T06:17:09;9.00;;;1.33;;
80307;SDS011;69616;43.522;1.348;2023-05-08T06:19:35;10.13;;;1.53;;
80307;SDS011;69616;43.522;1.348;2023-05-08T06:22:01;5.82;;;0.82;;
80307;SDS011;69616;43.522;1.348;2023-05-08T06:24:27;7.67;;;1.13;;
80307;SDS011;69616;43.522;1.348;2023-05-08T06:26:52;8.88;;;1.23;;
80307;SDS011;69616;43.522;1.348;2023-05-08T06:29:18;9.80;;;1.20;;
80307;SDS011;69616;43.522;1.348;2023-05-08T06:31:43;7.63;;;1.20;;
80307;SDS011;69616;43.522;1.348;2023-05-08T06:34:08;8.33;;;1.30;;
80307;SDS011;69616;43.522;1.348;2023-05-08T06:36:34;9.88;;;1.20;;
80307;SDS011;69616;43.522;1.348;2023-05-08T06:39:00;7.97;;;1.38;;
80307;SDS011;69616;43.522;1.348;2023-05-08T06:41:25;7.03;;;1.13;;
80307;SDS011;69616;43.522;1.348;2023-05-08T06:43:51;7.93;;;0.97;;
80307;SDS011;69616;43.522;1.348;2023-05-08T06:46:17;4.57;;;0.75;;
80307;SDS011;69616;43.522;1.348;2023-05-08T06:48:42;11.17;;;1.50;;
80307;SDS011;69616;43.522;1.348;2023-05-08T06:51:07;7.40;;;0.93;;
80307;SDS011;69616;43.522;1.348;2023-05-08T06:53:33;6.17;;;0.80;;
80307;SDS011;69616;43.522;1.348;2023-05-08T06:55:58;7.53;;;1.27;;
80307;SDS011;69616;43.522;1.348;2023-05-08T06:58:23;6.38;;;1.00;;
80307;SDS011;69616;43.522;1.348;2023-05-08T07:00:49;10.00;;;1.30;;
80307;SDS011;69616;43.522;1.348;2023-05-08T07:03:15;5.83;;;0.90;;
80307;SDS011;69616;43.522;1.348;2023-05-08T07:05:40;6.78;;;0.90;;
80307;SDS011;69616;43.522;1.348;2023-05-08T07:08:05;8.60;;;1.03;;
80307;SDS011;69616;43.522;1.348;2023-05-08T07:10:31;8.10;;;0.93;;
80307;SDS011;69616;43.522;1.348;2023-05-08T07:12:57;5.63;;;0.80;;
80307;SDS011;69616;43.522;1.348;2023-05-08T07:15:22;4.93;;;0.73;;
80307;SDS011;69616;43.522;1.348;2023-05-08T07:17:48;6.87;;;0.90;;
80307;SDS011;69616;43.522;1.348;2023-05-08T07:20:13;5.90;;;0.77;;
80307;SDS011;69616;43.522;1.348;2023-05-08T07:22:39;7.43;;;1.10;;
80307;SDS011;69616;43.522;1.348;2023-05-08T07:25:04;5.20;;;0.70;;
80307;SDS011;69616;43.522;1.348;2023-05-08T07:27:30;6.35;;;0.90;;
80307;SDS011;69616;43.522;1.348;2023-05-08T07:29:55;6.67;;;0.80;;
80307;SDS011;69616;43.522;1.348;2023-05-08T07:32:28;7.53;;;1.40;;
80307;SDS011;69616;43.522;1.348;2023-05-08T07:34:55;6.68;;;0.80;;
80307;SDS011;69616;43.522;1.348;2023-05-08T07:37:21;5.40;;;0.77;;
80307;SDS011;69616;43.522;1.348;2023-05-08T07:39:47;6.18;;;0.90;;
80307;SDS011;69616;43.522;1.348;2023-05-08T07:42:12;5.43;;;0.90;;
80307;SDS011;69616;43.522;1.348;2023-05-08T07:44:38;6.80;;;0.80;;
80307;SDS011;69616;43.522;1.348;2023-05-08T07:47:03;7.90;;;0.70;;
80307;SDS011;69616;43.522;1.348;2023-05-08T07:49:29;7.73;;;0.90;;
80307;SDS011;69616;43.522;1.348;2023-05-08T07:51:54;7.30;;;0.70;;
80307;SDS011;69616;43.522;1.348;2023-05-08T07:54:20;5.75;;;0.90;;
80307;SDS011;69616;43.522;1.348;2023-05-08T07:56:45;7.13;;;0.80;;
80307;SDS011;69616;43.522;1.348;2023-05-08T07:59:10;6.13;;;1.10;;
80307;SDS011;69616;43.522;1.348;2023-05-08T08:01:36;6.83;;;0.93;;
80307;SDS011;69616;43.522;1.348;2023-05-08T08:04:01;6.30;;;0.90;;
80307;SDS011;69616;43.522;1.348;2023-05-08T08:06:27;8.93;;;1.30;;
80307;SDS011;69616;43.522;1.348;2023-05-08T08:08:53;5.20;;;0.70;;
80307;SDS011;69616;43.522;1.348;2023-05-08T08:11:18;6.10;;;0.93;;
80307;SDS011;69616;43.522;1.348;2023-05-08T08:13:43;8.33;;;0.83;;
80307;SDS011;69616;43.522;1.348;2023-05-08T08:16:09;6.93;;;1.10;;
80307;SDS011;69616;43.522;1.348;2023-05-08T08:18:34;5.37;;;0.93;;
80307;SDS011;69616;43.522;1.348;2023-05-08T08:21:03;7.85;;;0.90;;
80307;SDS011;69616;43.522;1.348;2023-05-08T08:23:29;5.72;;;0.80;;
80307;SDS011;69616;43.522;1.348;2023-05-08T08:25:54;7.97;;;0.90;;
80307;SDS011;69616;43.522;1.348;2023-05-08T08:28:20;6.80;;;0.90;;
80307;SDS011;69616;43.522;1.348;2023-05-08T08:30:46;6.93;;;0.80;;
80307;SDS011;69616;43.522;1.348;2023-05-08T08:33:12;6.60;;;1.00;;
80307;SDS011;69616;43.522;1.348;2023-05-08T08:35:37;8.47;;;1.30;;
80307;SDS011;69616;43.522;1.348;2023-05-08T08:38:02;6.77;;;1.10;;
80307;SDS011;69616;43.522;1.348;2023-05-08T08:40:28;7.03;;;1.10;;
80307;SDS011;69616;43.522;1.348;2023-05-08T08:42:53;6.60;;;1.03;;
80307;SDS011;69616;43.522;1.348;2023-05-08T08:45:19;7.53;;;1.10;;
80307;SDS011;69616;43.522;1.348;2023-05-08T08:47:45;8.57;;;1.10;;
80307;SDS011;69616;43.522;1.348;2023-05-08T08:50:12;7.95;;;1.00;;
80307;SDS011;69616;43.522;1.348;2023-05-08T08:52:46;12.10;;;1.20;;
80307;SDS011;69616;43.522;1.348;2023-05-08T08:55:25;8.32;;;1.20;;
80307;SDS011;69616;43.522;1.348;2023-05-08T08:57:55;5.73;;;0.80;;
80307;SDS011;69616;43.522;1.348;2023-05-08T09:00:23;6.63;;;1.07;;
80307;SDS011;69616;43.522;1.348;2023-05-08T09:02:53;6.55;;;1.13;;
80307;SDS011;69616;43.522;1.348;2023-05-08T09:05:20;5.60;;;0.90;;
80307;SDS011;69616;43.522;1.348;2023-05-08T09:07:46;5.57;;;1.03;;
80307;SDS011;69616;43.522;1.348;2023-05-08T09:10:12;5.00;;;0.80;;
80307;SDS011;69616;43.522;1.348;2023-05-08T09:12:40;7.38;;;0.90;;
80307;SDS011;69616;43.522;1.348;2023-05-08T09:15:06;6.95;;;1.10;;
80307;SDS011;69616;43.522;1.348;2023-05-08T09:17:31;6.63;;;0.90;;
80307;SDS011;69616;43.522;1.348;2023-05-08T09:19:56;7.20;;;1.13;;
80307;SDS011;69616;43.522;1.348;2023-05-08T09:22:22;6.47;;;1.05;;
80307;SDS011;69616;43.522;1.348;2023-05-08T09:24:57;9.57;;;1.10;;
80307;SDS011;69616;43.522;1.348;2023-05-08T09:27:25;6.85;;;0.90;;
80307;SDS011;69616;43.522;1.348;2023-05-08T09:30:04;9.80;;;1.20;;
80307;SDS011;69616;43.522;1.348;2023-05-08T09:32:32;10.10;;;1.77;;
80307;SDS011;69616;43.522;1.348;2023-05-08T09:35:02;8.48;;;1.00;;
80307;SDS011;69616;43.522;1.348;2023-05-08T09:37:29;7.30;;;1.25;;
80307;SDS011;69616;43.522;1.348;2023-05-08T09:40:11;7.30;;;1.10;;
80307;SDS011;69616;43.522;1.348;2023-05-08T09:42:39;6.00;;;1.00;;
80307;SDS011;69616;43.522;1.348;2023-05-08T09:45:05;6.10;;;1.23;;
80307;SDS011;69616;43.522;1.348;2023-05-08T09:47:31;6.95;;;1.48;;
80307;SDS011;69616;43.522;1.348;2023-05-08T09:49:57;6.97;;;1.00;;
80307;SDS011;69616;43.522;1.348;2023-05-08T09:52:27;8.82;;;1.60;;
80307;SDS011;69616;43.522;1.348;2023-05-08T09:54:57;7.35;;;1.58;;
80307;SDS011;69616;43.522;1.348;2023-05-08T09:57:27;7.97;;;1.60;;
80307;SDS011;69616;43.522;1.348;2023-05-08T10:00:04;6.10;;;1.40;;
80307;SDS011;69616;43.522;1.348;2023-05-08T10:02:30;10.95;;;2.17;;
80307;SDS011;69616;43.522;1.348;2023-05-08T10:04:56;7.88;;;1.70;;
80307;SDS011;69616;43.522;1.348;2023-05-08T10:07:28;8.00;;;1.47;;
80307;SDS011;69616;43.522;1.348;2023-05-08T10:10:04;7.32;;;1.30;;
80307;SDS011;69616;43.522;1.348;2023-05-08T10:12:31;6.35;;;1.20;;
80307;SDS011;69616;43.522;1.348;2023-05-08T10:14:57;8.15;;;1.23;;
80307;SDS011;69616;43.522;1.348;2023-05-08T10:20:31;9.45;;;3.13;;
80307;SDS011;69616;43.522;1.348;2023-05-08T10:22:58;10.48;;;1.50;;
80307;SDS011;69616;43.522;1.348;2023-05-08T10:25:24;6.05;;;1.10;;
80307;SDS011;69616;43.522;1.348;2023-05-08T10:30:30;6.13;;;1.10;;
80307;SDS011;69616;43.522;1.348;2023-05-08T10:32:58;6.35;;;1.20;;
80307;SDS011;69616;43.522;1.348;2023-05-08T10:35:27;9.68;;;1.40;;
80307;SDS011;69616;43.522;1.348;2023-05-08T10:37:52;5.35;;;1.00;;
80307;SDS011;69616;43.522;1.348;2023-05-08T10:40:20;6.83;;;1.00;;
80307;SDS011;69616;43.522;1.348;2023-05-08T10:42:47;6.22;;;0.85;;
80307;SDS011;69616;43.522;1.348;2023-05-08T10:45:13;7.97;;;1.40;;
80307;SDS011;69616;43.522;1.348;2023-05-08T10:50:38;6.65;;;0.88;;
80307;SDS011;69616;43.522;1.348;2023-05-08T10:56:04;8.07;;;1.10;;
80307;SDS011;69616;43.522;1.348;2023-05-08T10:58:31;6.50;;;1.43;;
80307;SDS011;69616;43.522;1.348;2023-05-08T11:03:29;6.93;;;1.10;;
80307;SDS011;69616;43.522;1.348;2023-05-08T11:05:55;5.95;;;0.80;;
80307;SDS011;69616;43.522;1.348;2023-05-08T11:08:22;6.72;;;1.35;;
80307;SDS011;69616;43.522;1.348;2023-05-08T11:10:51;7.60;;;1.10;;
80307;SDS011;69616;43.522;1.348;2023-05-08T11:13:31;7.75;;;1.13;;
80307;SDS011;69616;43.522;1.348;2023-05-08T11:15:59;9.60;;;1.40;;
80307;SDS011;69616;43.522;1.348;2023-05-08T11:18:25;7.10;;;1.40;;
80307;SDS011;69616;43.522;1.348;2023-05-08T11:23:23;9.10;;;1.33;;
80307;SDS011;69616;43.522;1.348;2023-05-08T11:28:56;6.18;;;1.20;;
80307;SDS011;69616;43.522;1.348;2023-05-08T11:31:22;6.53;;;1.23;;
80307;SDS011;69616;43.522;1.348;2023-05-08T11:33:47;8.02;;;1.02;;
80307;SDS011;69616;43.522;1.348;2023-05-08T11:38:39;8.75;;;1.27;;
80307;SDS011;69616;43.522;1.348;2023-05-08T11:41:19;9.60;;;1.15;;
80307;SDS011;69616;43.522;1.348;2023-05-08T11:49:16;8.70;;;1.30;;
80307;SDS011;69616;43.522;1.348;2023-05-08T11:51:47;5.60;;;0.90;;
80307;SDS011;69616;43.522;1.348;2023-05-08T11:54:18;7.30;;;1.80;;
80307;SDS011;69616;43.522;1.348;2023-05-08T11:56:45;8.00;;;1.53;;
80307;SDS011;69616;43.522;1.348;2023-05-08T11:59:11;8.13;;;1.17;;
80307;SDS011;69616;43.522;1.348;2023-05-08T12:01:37;6.07;;;1.00;;
80307;SDS011;69616;43.522;1.348;2023-05-08T12:04:06;7.30;;;1.60;;
80307;SDS011;69616;43.522;1.348;2023-05-08T12:06:33;7.20;;;1.15;;
80307;SDS011;69616;43.522;1.348;2023-05-08T12:09:02;5.35;;;1.23;;
80307;SDS011;69616;43.522;1.348;2023-05-08T12:11:34;5.72;;;1.05;;
80307;SDS011;69616;43.522;1.348;2023-05-08T12:13:59;7.83;;;1.30;;
80307;SDS011;69616;43.522;1.348;2023-05-08T12:16:25;5.60;;;0.90;;
80307;SDS011;69616;43.522;1.348;2023-05-08T12:18:51;7.82;;;1.33;;
80307;SDS011;69616;43.522;1.348;2023-05-08T12:21:17;6.07;;;1.45;;
80307;SDS011;69616;43.522;1.348;2023-05-08T12:23:43;6.03;;;0.95;;
80307;SDS011;69616;43.522;1.348;2023-05-08T12:26:09;8.20;;;1.23;;
80307;SDS011;69616;43.522;1.348;2023-05-08T12:28:36;8.00;;;1.20;;
80307;SDS011;69616;43.522;1.348;2023-05-08T12:31:02;7.47;;;1.20;;
80307;SDS011;69616;43.522;1.348;2023-05-08T12:33:28;6.40;;;1.03;;
80307;SDS011;69616;43.522;1.348;2023-05-08T12:35:54;4.70;;;1.02;;
80307;SDS011;69616;43.522;1.348;2023-05-08T12:38:24;5.18;;;0.80;;
80307;SDS011;69616;43.522;1.348;2023-05-08T12:40:50;5.70;;;0.88;;
80307;SDS011;69616;43.522;1.348;2023-05-08T12:43:35;8.75;;;1.00;;
80307;SDS011;69616;43.522;1.348;2023-05-08T12:46:02;6.93;;;1.20;;
80307;SDS011;69616;43.522;1.348;2023-05-08T12:48:28;8.43;;;1.30;;
80307;SDS011;69616;43.522;1.348;2023-05-08T12:50:59;4.70;;;0.82;;
80307;SDS011;69616;43.522;1.348;2023-05-08T12:53:28;5.45;;;1.30;;
80307;SDS011;69616;43.522;1.348;2023-05-08T12:55:56;4.93;;;1.08;;
80307;SDS011;69616;43.522;1.348;2023-05-08T12:58:23;5.70;;;1.30;;
80307;SDS011;69616;43.522;1.348;2023-05-08T13:00:50;5.20;;;0.98;;
80307;SDS011;69616;43.522;1.348;2023-05-08T13:03:26;7.65;;;1.13;;
80307;SDS011;69616;43.522;1.348;2023-05-08T13:05:55;5.90;;;1.05;;
80307;SDS011;69616;43.522;1.348;2023-05-08T13:08:32;6.25;;;1.02;;
80307;SDS011;69616;43.522;1.348;2023-05-08T13:11:02;7.10;;;1.20;;
80307;SDS011;69616;43.522;1.348;2023-05-08T13:13:31;5.47;;;1.02;;
80307;SDS011;69616;43.522;1.348;2023-05-08T13:16:01;8.02;;;1.50;;
80307;SDS011;69616;43.522;1.348;2023-05-08T13:18:28;6.22;;;1.15;;
80307;SDS011;69616;43.522;1.348;2023-05-08T13:20:54;9.53;;;1.30;;
80307;SDS011;69616;43.522;1.348;2023-05-08T13:23:20;6.47;;;1.10;;
80307;SDS011;69616;43.522;1.348;2023-05-08T13:25:46;7.18;;;1.00;;
80307;SDS011;69616;43.522;1.348;2023-05-08T13:28:11;9.67;;;1.00;;
80307;SDS011;69616;43.522;1.348;2023-05-08T13:30:37;7.87;;;1.40;;
80307;SDS011;69616;43.522;1.348;2023-05-08T13:33:02;6.60;;;1.00;;
80307;SDS011;69616;43.522;1.348;2023-05-08T13:35:29;8.40;;;0.97;;
80307;SDS011;69616;43.522;1.348;2023-05-08T13:37:55;5.05;;;0.93;;
80307;SDS011;69616;43.522;1.348;2023-05-08T13:40:21;5.65;;;1.25;;
80307;SDS011;69616;43.522;1.348;2023-05-08T13:42:47;6.88;;;1.10;;
80307;SDS011;69616;43.522;1.348;2023-05-08T13:45:13;4.40;;;0.90;;
80307;SDS011;69616;43.522;1.348;2023-05-08T13:47:39;6.43;;;1.08;;
80307;SDS011;69616;43.522;1.348;2023-05-08T13:50:06;6.10;;;0.93;;
80307;SDS011;69616;43.522;1.348;2023-05-08T14:49:42;6.18;;;1.27;;
80307;SDS011;69616;43.522;1.348;2023-05-08T14:52:07;5.63;;;1.30;;
80307;SDS011;69616;43.522;1.348;2023-05-08T14:54:33;21.00;;;2.17;;
80307;SDS011;69616;43.522;1.348;2023-05-08T14:56:58;11.97;;;1.93;;
80307;SDS011;69616;43.522;1.348;2023-05-08T14:59:23;7.70;;;1.60;;
80307;SDS011;69616;43.522;1.348;2023-05-08T15:01:49;23.27;;;2.03;;
80307;SDS011;69616;43.522;1.348;2023-05-08T15:04:14;6.20;;;1.40;;
80307;SDS011;69616;43.522;1.348;2023-05-08T15:06:40;7.23;;;1.30;;
80307;SDS011;69616;43.522;1.348;2023-05-08T15:09:08;6.32;;;1.13;;
80307;SDS011;69616;43.522;1.348;2023-05-08T15:11:33;9.15;;;1.10;;
80307;SDS011;69616;43.522;1.348;2023-05-08T15:14:00;4.93;;;1.00;;
80307;SDS011;69616;43.522;1.348;2023-05-08T15:16:26;5.68;;;1.38;;
80307;SDS011;69616;43.522;1.348;2023-05-08T15:18:52;6.47;;;1.33;;
80307;SDS011;69616;43.522;1.348;2023-05-08T15:21:17;5.43;;;1.20;;
80307;SDS011;69616;43.522;1.348;2023-05-08T15:23:45;13.53;;;4.50;;
80307;SDS011;69616;43.522;1.348;2023-05-08T15:26:10;7.03;;;1.40;;
80307;SDS011;69616;43.522;1.348;2023-05-08T15:28:36;5.63;;;1.00;;
80307;SDS011;69616;43.522;1.348;2023-05-08T15:31:04;7.57;;;1.30;;
80307;SDS011;69616;43.522;1.348;2023-05-08T15:33:29;6.03;;;1.30;;
80307;SDS011;69616;43.522;1.348;2023-05-08T15:35:55;7.20;;;1.33;;
80307;SDS011;69616;43.522;1.348;2023-05-08T15:38:22;6.50;;;1.15;;
80307;SDS011;69616;43.522;1.348;2023-05-08T15:40:48;5.40;;;1.40;;
80307;SDS011;69616;43.522;1.348;2023-05-08T15:43:13;7.87;;;2.40;;
80307;SDS011;69616;43.522;1.348;2023-05-08T15:45:38;4.90;;;1.10;;
80307;SDS011;69616;43.522;1.348;2023-05-08T15:48:04;5.73;;;1.00;;
80307;SDS011;69616;43.522;1.348;2023-05-08T15:50:29;4.67;;;0.80;;
80307;SDS011;69616;43.522;1.348;2023-05-08T15:52:55;6.67;;;1.13;;
80307;SDS011;69616;43.522;1.348;2023-05-08T15:55:20;5.03;;;0.90;;
80307;SDS011;69616;43.522;1.348;2023-05-08T15:57:45;8.23;;;1.07;;
80307;SDS011;69616;43.522;1.348;2023-05-08T16:00:11;5.20;;;1.03;;
80307;SDS011;69616;43.522;1.348;2023-05-08T16:02:37;8.43;;;1.17;;
80307;SDS011;69616;43.522;1.348;2023-05-08T16:05:02;6.33;;;1.20;;
80307;SDS011;69616;43.522;1.348;2023-05-08T16:07:28;6.53;;;1.10;;
80307;SDS011;69616;43.522;1.348;2023-05-08T16:09:53;4.57;;;1.10;;
80307;SDS011;69616;43.522;1.348;2023-05-08T16:12:18;5.20;;;0.90;;
80307;SDS011;69616;43.522;1.348;2023-05-08T16:14:44;6.43;;;1.10;;
80307;SDS011;69616;43.522;1.348;2023-05-08T16:17:09;5.57;;;1.03;;
80307;SDS011;69616;43.522;1.348;2023-05-08T16:19:38;6.17;;;1.03;;
80307;SDS011;69616;43.522;1.348;2023-05-08T16:22:03;6.57;;;0.95;;
80307;SDS011;69616;43.522;1.348;2023-05-08T16:24:29;5.88;;;1.00;;
80307;SDS011;69616;43.522;1.348;2023-05-08T16:26:55;5.70;;;1.20;;
80307;SDS011;69616;43.522;1.348;2023-05-08T16:29:21;5.00;;;1.03;;
80307;SDS011;69616;43.522;1.348;2023-05-08T16:31:46;4.00;;;0.97;;
80307;SDS011;69616;43.522;1.348;2023-05-08T16:34:11;4.70;;;0.97;;
80307;SDS011;69616;43.522;1.348;2023-05-08T16:36:37;5.47;;;0.80;;
80307;SDS011;69616;43.522;1.348;2023-05-08T16:39:02;3.67;;;0.70;;
80307;SDS011;69616;43.522;1.348;2023-05-08T16:41:28;6.85;;;2.50;;